JYM weather

Hillsdale Municipal Airport
Hillsdale, Michigan, United States

Public forecast

Using degrees Fahrenheit for public forecast. Weather courtesy of forecast.io.

Current aviation weather report (METAR) for Hillsdale Municipal Airport

Retrieved 2020/06/01 04:36 UTC (4 minutes ago):

KJYM 010436Z AUTO 00000KT 10SM CLR 07/06 A3029 RMK AO2 T00720061

Closest aviation forecast (TAF) to Hillsdale Municipal Airport

Closest forecast is Jackson County Reynolds Field, 21.1 nm (39.1 km) NNE. Retrieved 2020-06-01 00:27 UTC (4 hours ago):

TAF KJXN 312325Z 0100/0124 VRB03KT P6SM SCT250 FM011300 21006KT P6SM SCT250 FM012100 21009KT P6SM BKN100